Time;durP1;ratioP1;P1;durP2;ratioP2;P2;SDS_P1;SDS_P2;PMS_P1;PMS_P2;Temp;Humidity;BMP_temperature;BMP_pressure;BME280_temperature;BME280_humidity;BME280_pressure;Samples;Min_cycle;Max_cycle;Signal;HPM_P1;HPM_P2
2023/07/31 00:02:03;;;;;;;3.00;1.92;;;16.60;99.90;;;;;;5006837;28;20088;-83
2023/07/31 00:04:29;;;;;;;5.88;2.20;;;16.60;99.90;;;;;;5016460;28;20484;-81
2023/07/31 00:06:54;;;;;;;4.40;2.10;;;16.60;99.90;;;;;;5028184;28;20041;-78
2023/07/31 00:09:20;;;;;;;4.75;2.10;;;16.60;99.90;;;;;;5017616;28;20072;-79
2023/07/31 00:11:45;;;;;;;5.88;2.20;;;16.50;99.90;;;;;;5016572;28;20497;-79
2023/07/31 00:14:11;;;;;;;5.63;2.20;;;16.50;99.90;;;;;;5017357;28;20029;-79
2023/07/31 00:16:37;;;;;;;5.38;2.40;;;16.50;99.90;;;;;;5006561;28;20037;-79
2023/07/31 00:19:02;;;;;;;4.45;2.15;;;16.50;99.90;;;;;;5017159;28;20056;-79
2023/07/31 00:21:28;;;;;;;7.13;2.50;;;16.50;99.90;;;;;;5030033;28;20041;-79
2023/07/31 00:23:53;;;;;;;6.75;2.65;;;16.50;99.90;;;;;;5015101;28;20154;-81
2023/07/31 00:26:19;;;;;;;6.20;2.10;;;16.40;99.90;;;;;;5014696;28;20060;-79
2023/07/31 00:28:44;;;;;;;6.00;2.35;;;16.40;99.90;;;;;;5016353;28;20129;-79
2023/07/31 00:31:10;;;;;;;7.03;2.33;;;16.30;99.90;;;;;;5016254;28;20048;-78
2023/07/31 00:33:36;;;;;;;5.05;2.33;;;16.40;99.90;;;;;;5033685;28;20045;-78
2023/07/31 00:36:02;;;;;;;5.90;2.40;;;16.40;99.90;;;;;;5015749;28;20037;-78
2023/07/31 00:38:27;;;;;;;5.97;2.40;;;16.40;99.90;;;;;;5034018;28;20048;-78
2023/07/31 00:40:53;;;;;;;5.75;2.65;;;16.40;99.90;;;;;;5016686;28;20044;-79
2023/07/31 00:43:18;;;;;;;8.32;2.40;;;16.40;99.90;;;;;;4997411;28;20116;-79
2023/07/31 00:45:44;;;;;;;5.07;2.28;;;16.20;99.90;;;;;;5013720;28;20042;-78
2023/07/31 00:48:10;;;;;;;5.18;2.40;;;16.30;99.90;;;;;;5029619;28;20045;-76
2023/07/31 00:50:36;;;;;;;5.18;2.38;;;16.30;99.90;;;;;;5032967;28;20398;-76
2023/07/31 00:53:01;;;;;;;5.90;2.65;;;16.20;99.90;;;;;;5018824;28;20038;-76
2023/07/31 00:55:27;;;;;;;5.65;2.25;;;16.20;99.90;;;;;;5010932;28;20445;-76
2023/07/31 00:57:55;;;;;;;4.68;2.10;;;16.30;99.90;;;;;;5006322;28;20042;-77
2023/07/31 01:00:21;;;;;;;5.55;2.38;;;16.30;99.90;;;;;;5001395;28;20038;-77
2023/07/31 01:02:48;;;;;;;8.15;2.55;;;16.20;99.90;;;;;;5007598;28;20045;-77
2023/07/31 01:05:14;;;;;;;5.07;2.20;;;16.20;99.90;;;;;;5007474;28;20041;-77
2023/07/31 01:08:04;;;;;;;4.07;2.22;;;16.20;99.90;;;;;;5022517;28;20398;-77
2023/07/31 01:10:41;;;;;;;7.20;2.35;;;16.20;99.90;;;;;;5026903;28;20049;-77
2023/07/31 01:13:07;;;;;;;4.28;2.15;;;16.20;99.90;;;;;;5002418;28;20088;-76
2023/07/31 01:15:33;;;;;;;4.25;2.15;;;16.20;99.90;;;;;;5024255;28;20047;-77
2023/07/31 01:17:59;;;;;;;4.57;1.92;;;16.20;99.90;;;;;;5014193;28;20116;-76
2023/07/31 01:20:26;;;;;;;3.80;2.00;;;16.20;99.90;;;;;;5020949;28;20096;-75
2023/07/31 01:22:52;;;;;;;5.70;2.85;;;16.20;99.90;;;;;;5018106;28;20516;-75
2023/07/31 01:25:55;;;;;;;3.78;1.80;;;16.10;99.90;;;;;;5031955;28;20041;-77
2023/07/31 01:28:33;;;;;;;5.07;1.70;;;16.10;99.90;;;;;;5045745;28;20061;-78
2023/07/31 01:31:02;;;;;;;3.50;1.60;;;16.20;99.90;;;;;;5014232;28;20039;-78
2023/07/31 01:33:28;;;;;;;2.80;1.50;;;16.10;99.90;;;;;;5032524;28;20038;-77
2023/07/31 01:35:55;;;;;;;3.83;1.42;;;16.10;99.90;;;;;;5032381;28;20104;-77
2023/07/31 01:38:22;;;;;;;3.13;1.23;;;16.10;99.90;;;;;;5015491;28;20041;-76
2023/07/31 01:40:52;;;;;;;3.03;1.23;;;16.10;99.90;;;;;;5023698;28;20489;-79
2023/07/31 01:43:18;;;;;;;2.83;1.08;;;16.10;99.90;;;;;;5017218;28;20042;-77
2023/07/31 01:45:43;;;;;;;3.47;1.10;;;16.10;99.90;;;;;;5021913;28;20045;-79
2023/07/31 01:48:09;;;;;;;4.15;1.20;;;16.00;99.90;;;;;;5000686;28;20091;-79
2023/07/31 01:50:34;;;;;;;2.83;1.08;;;16.00;99.90;;;;;;5010888;28;20045;-78
2023/07/31 01:53:00;;;;;;;1.35;0.90;;;16.00;99.90;;;;;;5031248;28;20076;-77
2023/07/31 01:55:26;;;;;;;2.08;0.90;;;16.00;99.90;;;;;;5022540;28;20107;-81
2023/07/31 01:57:52;;;;;;;3.60;1.20;;;16.00;99.90;;;;;;5043840;28;20041;-80
2023/07/31 02:00:18;;;;;;;1.08;0.80;;;16.00;99.90;;;;;;5041131;28;20041;-78
2023/07/31 02:02:43;;;;;;;2.22;0.77;;;16.00;99.90;;;;;;5023028;28;20087;-77
2023/07/31 02:05:09;;;;;;;1.77;0.90;;;16.10;99.90;;;;;;5012278;28;20049;-77
2023/07/31 02:07:35;;;;;;;1.60;0.80;;;16.00;99.90;;;;;;5013250;28;20041;-77
2023/07/31 02:10:00;;;;;;;2.13;0.80;;;16.00;99.90;;;;;;5020369;28;20556;-77
2023/07/31 02:12:26;;;;;;;2.05;0.90;;;16.00;99.90;;;;;;5019408;28;20041;-78
2023/07/31 02:14:52;;;;;;;1.45;0.70;;;16.00;99.90;;;;;;5031019;28;20387;-77
2023/07/31 02:17:17;;;;;;;1.90;0.68;;;16.00;99.90;;;;;;5029184;28;20087;-77
2023/07/31 02:19:43;;;;;;;0.90;0.70;;;16.00;99.90;;;;;;5028056;28;20038;-78
2023/07/31 02:22:08;;;;;;;3.25;0.80;;;16.00;99.90;;;;;;5028475;28;20409;-79
2023/07/31 02:24:34;;;;;;;0.98;0.70;;;16.10;99.90;;;;;;5030426;28;20077;-79
2023/07/31 02:26:59;;;;;;;1.20;0.50;;;16.00;99.90;;;;;;5015415;28;20050;-79
2023/07/31 02:29:25;;;;;;;0.73;0.50;;;16.10;99.90;;;;;;5011895;28;20041;-79
2023/07/31 02:31:51;;;;;;;1.17;0.73;;;16.00;99.90;;;;;;5014135;28;20037;-78
2023/07/31 02:34:16;;;;;;;2.55;0.80;;;16.00;99.90;;;;;;5017845;28;20513;-79
2023/07/31 02:36:42;;;;;;;0.82;0.70;;;16.00;99.90;;;;;;4995533;28;20053;-79
2023/07/31 02:39:07;;;;;;;1.60;0.60;;;16.00;99.90;;;;;;5030268;28;20572;-79
2023/07/31 02:41:33;;;;;;;2.47;0.80;;;16.00;99.90;;;;;;5015125;28;20076;-79
2023/07/31 02:43:58;;;;;;;2.35;0.90;;;16.00;99.90;;;;;;5013564;28;20045;-79
2023/07/31 02:46:24;;;;;;;2.67;0.98;;;16.00;99.90;;;;;;5029363;28;20409;-79
2023/07/31 02:48:51;;;;;;;3.42;0.90;;;16.00;99.90;;;;;;5020236;28;20042;-79
2023/07/31 02:51:17;;;;;;;1.58;0.80;;;16.00;99.90;;;;;;5033575;28;20092;-79
2023/07/31 02:53:42;;;;;;;1.20;0.88;;;16.00;99.90;;;;;;5034041;28;20508;-79
2023/07/31 02:56:08;;;;;;;1.48;0.88;;;16.00;99.90;;;;;;5014821;28;20032;-79
2023/07/31 02:58:33;;;;;;;2.88;0.90;;;16.10;99.90;;;;;;5003349;28;20046;-78
2023/07/31 03:00:59;;;;;;;2.10;0.90;;;16.00;99.90;;;;;;5026865;28;20049;-79
2023/07/31 03:03:25;;;;;;;2.58;0.82;;;16.00;99.90;;;;;;5008160;28;20074;-78
2023/07/31 03:05:50;;;;;;;1.73;0.90;;;15.90;99.90;;;;;;5052313;28;20045;-78
2023/07/31 03:08:16;;;;;;;1.40;0.70;;;16.00;99.90;;;;;;5015296;28;20041;-78
2023/07/31 03:10:41;;;;;;;1.20;0.57;;;16.00;99.90;;;;;;5019908;28;20042;-80
2023/07/31 03:13:07;;;;;;;2.65;0.80;;;16.00;99.90;;;;;;5034338;28;20401;-79
2023/07/31 03:15:33;;;;;;;1.23;0.68;;;16.00;99.90;;;;;;5016967;28;20033;-79
2023/07/31 03:17:58;;;;;;;1.30;0.60;;;16.00;99.90;;;;;;5001887;28;20066;-79
2023/07/31 03:20:24;;;;;;;1.60;0.70;;;16.00;99.90;;;;;;5017526;28;20490;-78
2023/07/31 03:22:49;;;;;;;1.30;0.70;;;16.00;99.90;;;;;;5025535;28;20041;-78
2023/07/31 03:25:15;;;;;;;1.00;0.60;;;16.00;99.90;;;;;;5017710;28;20041;-78
2023/07/31 03:27:41;;;;;;;1.23;0.57;;;16.00;99.90;;;;;;5028732;28;20455;-78
2023/07/31 03:30:07;;;;;;;1.95;0.75;;;16.00;99.90;;;;;;5020875;28;20049;-78
2023/07/31 03:32:32;;;;;;;1.60;0.70;;;15.90;99.90;;;;;;5034953;28;20164;-78
2023/07/31 03:34:58;;;;;;;0.70;0.50;;;15.90;99.90;;;;;;5026630;28;20109;-78
2023/07/31 03:37:24;;;;;;;0.85;0.70;;;16.00;99.90;;;;;;5021527;28;20033;-78
2023/07/31 03:39:49;;;;;;;1.80;0.82;;;16.00;99.90;;;;;;5011548;28;20041;-78
2023/07/31 03:42:15;;;;;;;2.35;0.90;;;16.00;99.90;;;;;;5029121;28;20168;-78
2023/07/31 03:44:40;;;;;;;1.83;0.70;;;16.00;99.90;;;;;;5027635;28;20410;-78
2023/07/31 03:47:06;;;;;;;1.20;0.75;;;16.00;99.90;;;;;;5015307;28;20120;-78
2023/07/31 03:49:32;;;;;;;0.70;0.60;;;16.00;99.90;;;;;;5017076;28;20033;-78
2023/07/31 03:51:57;;;;;;;1.63;0.57;;;16.00;99.90;;;;;;5014407;28;20072;-79
2023/07/31 03:54:23;;;;;;;2.83;0.60;;;16.00;99.90;;;;;;5034850;28;20041;-79
2023/07/31 03:56:48;;;;;;;1.55;0.60;;;16.00;99.90;;;;;;5019306;28;20125;-79
2023/07/31 03:59:14;;;;;;;1.13;0.60;;;16.00;99.90;;;;;;5046608;28;20103;-79
2023/07/31 04:01:39;;;;;;;1.58;0.52;;;16.00;99.90;;;;;;5029597;28;20044;-79
2023/07/31 04:04:05;;;;;;;1.60;0.70;;;16.00;99.90;;;;;;5025635;28;20497;-80
2023/07/31 04:06:31;;;;;;;2.33;0.82;;;16.00;99.90;;;;;;5027360;28;20457;-80
2023/07/31 04:08:56;;;;;;;0.85;0.60;;;16.10;99.90;;;;;;5015553;28;20041;-80
2023/07/31 04:11:22;;;;;;;1.67;0.63;;;16.10;99.90;;;;;;4997302;28;20048;-80
2023/07/31 04:13:47;;;;;;;0.85;0.70;;;16.10;99.90;;;;;;5016783;28;20034;-80
2023/07/31 04:16:13;;;;;;;1.77;0.80;;;16.10;99.90;;;;;;5032362;28;20042;-80
2023/07/31 04:18:38;;;;;;;0.85;0.60;;;16.10;99.90;;;;;;5015537;28;20479;-80
2023/07/31 04:21:04;;;;;;;1.00;0.65;;;16.10;99.90;;;;;;4999274;28;20045;-80
2023/07/31 04:23:30;;;;;;;0.65;0.65;;;16.10;99.90;;;;;;5013961;28;20398;-80
2023/07/31 04:25:55;;;;;;;1.60;0.70;;;16.10;99.90;;;;;;5027045;28;20414;-79
2023/07/31 04:28:21;;;;;;;1.73;0.80;;;16.10;99.90;;;;;;5023410;28;20050;-80
2023/07/31 04:30:47;;;;;;;1.40;0.80;;;16.20;99.90;;;;;;5017456;28;20095;-81
2023/07/31 04:33:12;;;;;;;1.33;0.70;;;16.20;99.90;;;;;;5000975;28;20506;-81
2023/07/31 04:35:38;;;;;;;1.33;0.70;;;16.20;99.90;;;;;;5023097;28;20065;-80
2023/07/31 04:38:04;;;;;;;4.13;0.80;;;16.30;99.90;;;;;;5025423;28;20409;-80
2023/07/31 04:40:29;;;;;;;3.42;0.90;;;16.20;99.90;;;;;;5015168;28;20045;-80
2023/07/31 04:42:55;;;;;;;2.17;0.90;;;16.20;99.90;;;;;;5003070;28;20053;-80
2023/07/31 04:45:20;;;;;;;2.15;0.70;;;16.20;99.90;;;;;;5005874;28;20041;-80
2023/07/31 04:47:46;;;;;;;2.70;0.90;;;16.10;99.90;;;;;;5021411;28;20074;-80
2023/07/31 04:50:12;;;;;;;2.25;0.80;;;16.20;99.90;;;;;;5032371;28;20049;-80
2023/07/31 04:52:37;;;;;;;2.72;0.90;;;16.20;99.90;;;;;;5029233;28;20468;-80
2023/07/31 04:55:03;;;;;;;2.17;0.88;;;16.20;99.90;;;;;;5032661;28;20107;-79
2023/07/31 04:57:28;;;;;;;3.20;0.70;;;16.20;99.90;;;;;;5026502;28;20042;-79
2023/07/31 04:59:54;;;;;;;1.10;0.80;;;16.20;99.90;;;;;;5034942;28;20037;-79
2023/07/31 05:02:19;;;;;;;1.75;0.60;;;16.30;99.90;;;;;;5029012;28;20057;-79
2023/07/31 05:04:45;;;;;;;2.78;0.60;;;16.20;99.90;;;;;;5012965;28;20509;-79
2023/07/31 05:07:11;;;;;;;3.67;0.90;;;16.20;99.90;;;;;;5030642;28;20056;-79
2023/07/31 05:09:36;;;;;;;2.55;0.80;;;16.20;99.90;;;;;;5012445;28;20117;-79
2023/07/31 05:12:04;;;;;;;4.10;0.77;;;16.30;99.90;;;;;;5024539;28;20053;-79
2023/07/31 05:14:30;;;;;;;4.72;1.02;;;16.20;99.90;;;;;;4998641;28;20041;-78
2023/07/31 05:16:55;;;;;;;2.47;0.98;;;16.20;99.90;;;;;;5017624;28;20116;-78
2023/07/31 05:19:21;;;;;;;3.80;1.00;;;16.20;99.90;;;;;;5028491;28;20042;-79
2023/07/31 05:21:46;;;;;;;3.30;1.00;;;16.20;99.90;;;;;;5014772;28;20048;-78
2023/07/31 05:24:12;;;;;;;3.88;1.13;;;16.10;99.90;;;;;;5016384;28;20132;-78
2023/07/31 05:26:37;;;;;;;2.05;1.20;;;16.10;99.90;;;;;;5032312;28;20056;-79
2023/07/31 05:29:03;;;;;;;3.13;1.23;;;16.10;99.90;;;;;;5001715;28;20095;-79
2023/07/31 05:31:29;;;;;;;4.18;1.20;;;16.10;99.90;;;;;;5031244;28;20044;-79
2023/07/31 05:33:54;;;;;;;5.80;1.63;;;16.00;99.90;;;;;;5002086;28;20033;-79
2023/07/31 05:36:20;;;;;;;5.32;1.58;;;16.00;99.90;;;;;;5026087;28;20453;-79
2023/07/31 05:38:45;;;;;;;2.47;1.30;;;16.10;99.90;;;;;;5014856;28;20038;-79
2023/07/31 05:41:12;;;;;;;4.85;1.30;;;16.10;99.90;;;;;;5027489;28;20037;-78
2023/07/31 05:43:38;;;;;;;4.65;1.65;;;16.10;99.90;;;;;;5004356;28;20536;-78
2023/07/31 05:46:03;;;;;;;8.38;2.05;;;16.10;99.90;;;;;;5031624;28;20037;-78
2023/07/31 05:48:29;;;;;;;6.13;2.17;;;16.10;99.90;;;;;;5011344;28;20103;-79
2023/07/31 05:50:54;;;;;;;7.72;2.53;;;16.20;99.90;;;;;;5030795;28;20448;-79
2023/07/31 05:53:20;;;;;;;10.00;2.20;;;16.30;99.90;;;;;;5016149;28;20034;-79
2023/07/31 05:55:45;;;;;;;8.90;3.33;;;16.30;99.90;;;;;;4995975;28;20034;-80
2023/07/31 05:58:11;;;;;;;11.10;3.90;;;16.40;99.90;;;;;;4999737;28;20030;-80
2023/07/31 06:00:37;;;;;;;10.50;3.88;;;16.40;99.90;;;;;;5026904;28;20037;-80
2023/07/31 06:03:02;;;;;;;15.85;4.78;;;16.50;99.90;;;;;;5008331;28;20540;-79
2023/07/31 06:05:29;;;;;;;16.05;5.22;;;16.60;99.90;;;;;;5015671;28;20049;-79
2023/07/31 06:07:55;;;;;;;17.25;6.03;;;16.70;99.90;;;;;;5012251;28;20086;-80
2023/07/31 06:10:21;;;;;;;16.10;5.40;;;16.70;99.90;;;;;;5021780;28;20049;-80
2023/07/31 06:12:47;;;;;;;16.35;5.75;;;16.70;99.90;;;;;;5024082;28;20033;-80
2023/07/31 06:15:12;;;;;;;19.40;6.60;;;16.70;99.90;;;;;;4998974;28;20498;-80
2023/07/31 06:17:38;;;;;;;16.17;6.13;;;16.70;99.90;;;;;;5027017;28;20038;-80
2023/07/31 06:20:07;;;;;;;19.70;6.38;;;16.70;99.90;;;;;;5016489;28;20525;-80
2023/07/31 06:22:32;;;;;;;13.50;5.07;;;16.70;99.90;;;;;;5026632;28;20041;-80
2023/07/31 06:24:58;;;;;;;14.10;5.97;;;16.80;99.90;;;;;;5028884;28;21438;-80
2023/07/31 06:27:24;;;;;;;18.70;6.10;;;16.90;99.90;;;;;;5013319;28;20054;-80
2023/07/31 06:29:49;;;;;;;14.70;5.28;;;16.90;99.90;;;;;;5012501;28;20204;-80
2023/07/31 06:32:15;;;;;;;15.93;5.68;;;16.90;99.90;;;;;;5003697;28;20121;-80
2023/07/31 06:34:40;;;;;;;15.88;5.43;;;16.90;99.90;;;;;;5047941;28;20493;-80
2023/07/31 06:37:06;;;;;;;18.63;6.55;;;17.00;99.90;;;;;;5021047;28;20068;-79
2023/07/31 06:39:32;;;;;;;16.05;5.13;;;17.00;99.90;;;;;;5018277;28;20030;-79
2023/07/31 06:41:57;;;;;;;15.00;5.32;;;16.90;99.90;;;;;;5010989;28;20127;-80
2023/07/31 06:44:23;;;;;;;16.80;5.35;;;17.10;99.90;;;;;;5035238;28;20037;-80
2023/07/31 06:46:49;;;;;;;13.65;5.28;;;17.10;99.90;;;;;;5029479;28;20072;-80
2023/07/31 06:49:17;;;;;;;14.38;4.85;;;17.00;99.90;;;;;;5017707;28;20037;-80
2023/07/31 06:51:43;;;;;;;13.60;4.80;;;17.10;99.90;;;;;;5016190;28;20409;-80
2023/07/31 06:54:09;;;;;;;14.48;5.53;;;17.10;99.90;;;;;;5032060;28;20045;-80
2023/07/31 06:56:35;;;;;;;17.85;5.50;;;17.10;99.90;;;;;;5004943;28;20041;-80
2023/07/31 06:59:00;;;;;;;16.23;5.72;;;17.20;99.90;;;;;;5020036;28;20490;-80
2023/07/31 07:01:27;;;;;;;14.82;5.00;;;17.20;99.90;;;;;;5013424;28;20060;-80
2023/07/31 07:03:53;;;;;;;13.57;4.70;;;17.20;99.90;;;;;;5027165;28;20151;-80
2023/07/31 07:06:18;;;;;;;15.95;5.00;;;17.30;99.90;;;;;;5033435;28;20073;-80
2023/07/31 07:08:44;;;;;;;15.13;4.88;;;17.20;99.90;;;;;;5013640;28;20100;-80
2023/07/31 07:11:10;;;;;;;16.17;4.93;;;17.30;99.90;;;;;;5025297;28;20045;-80
2023/07/31 07:13:35;;;;;;;14.35;5.30;;;17.30;99.90;;;;;;5031929;28;20401;-80
2023/07/31 07:16:01;;;;;;;16.38;5.43;;;17.30;99.90;;;;;;5035439;28;20036;-80
2023/07/31 07:18:27;;;;;;;15.27;5.63;;;17.30;99.90;;;;;;5012700;28;20038;-80
2023/07/31 07:20:53;;;;;;;14.02;5.43;;;17.30;99.90;;;;;;5028514;28;20034;-80
2023/07/31 07:23:20;;;;;;;13.50;4.90;;;17.30;99.90;;;;;;5010369;28;20045;-80
2023/07/31 07:25:47;;;;;;;15.52;4.53;;;17.30;99.90;;;;;;5032567;28;20117;-80
2023/07/31 07:28:13;;;;;;;11.48;4.32;;;17.30;99.90;;;;;;5028230;28;20057;-80
2023/07/31 07:30:39;;;;;;;10.55;3.65;;;17.20;99.90;;;;;;5008761;28;20042;-80
2023/07/31 07:33:05;;;;;;;9.98;3.65;;;17.30;99.90;;;;;;5028893;28;20418;-79
2023/07/31 07:35:34;;;;;;;9.23;3.45;;;17.30;99.90;;;;;;5008063;28;20445;-78
2023/07/31 07:38:00;;;;;;;9.60;3.58;;;17.30;99.90;;;;;;5015969;28;20100;-80
2023/07/31 07:40:26;;;;;;;10.05;3.45;;;17.30;99.90;;;;;;5034740;28;20060;-80
2023/07/31 07:42:51;;;;;;;7.20;2.55;;;17.20;99.90;;;;;;5014069;28;20553;-80
2023/07/31 07:45:17;;;;;;;7.13;3.00;;;17.20;99.90;;;;;;5025588;28;20040;-80
2023/07/31 07:47:43;;;;;;;7.03;2.80;;;17.30;99.90;;;;;;4998881;28;20498;-80
2023/07/31 07:50:09;;;;;;;8.65;2.78;;;17.30;99.90;;;;;;5021053;28;20049;-80
2023/07/31 07:52:34;;;;;;;6.95;2.65;;;17.30;99.90;;;;;;5010141;28;20460;-79
2023/07/31 07:55:00;;;;;;;8.23;2.22;;;17.20;99.90;;;;;;5012748;28;20406;-79
2023/07/31 07:57:26;;;;;;;5.65;2.20;;;17.30;99.90;;;;;;5032939;28;20033;-80
2023/07/31 07:59:52;;;;;;;4.97;2.17;;;17.20;99.90;;;;;;5032313;28;20114;-80
2023/07/31 08:02:17;;;;;;;6.30;2.63;;;17.20;99.90;;;;;;5009641;28;20109;-79
2023/07/31 08:04:43;;;;;;;6.18;2.40;;;17.20;99.90;;;;;;5030116;28;20048;-80
2023/07/31 08:07:11;;;;;;;5.93;2.45;;;17.20;99.90;;;;;;5011702;28;20069;-80
2023/07/31 08:09:37;;;;;;;6.22;2.78;;;17.20;99.90;;;;;;5027577;28;20041;-80
2023/07/31 08:12:03;;;;;;;7.80;2.80;;;17.20;99.90;;;;;;5015898;28;20464;-80
2023/07/31 08:14:29;;;;;;;7.20;2.13;;;17.20;99.90;;;;;;5017325;28;20133;-80
2023/07/31 08:16:55;;;;;;;5.85;2.25;;;17.10;99.90;;;;;;5013435;28;20468;-80
2023/07/31 08:19:21;;;;;;;4.53;1.92;;;17.20;99.90;;;;;;5031381;28;20044;-79
2023/07/31 08:21:46;;;;;;;4.93;2.00;;;17.20;99.90;;;;;;5027774;28;20030;-80
2023/07/31 08:24:12;;;;;;;5.70;2.00;;;17.20;99.90;;;;;;5013731;28;20049;-80
2023/07/31 08:26:37;;;;;;;5.93;2.00;;;17.20;99.90;;;;;;5032282;28;20104;-80
2023/07/31 08:29:03;;;;;;;5.15;1.83;;;17.10;99.90;;;;;;5015552;28;20049;-80
2023/07/31 08:31:29;;;;;;;6.00;1.70;;;17.30;99.90;;;;;;5033421;28;20045;-80
2023/07/31 08:33:55;;;;;;;5.22;1.70;;;17.20;99.90;;;;;;5032460;28;20042;-80
2023/07/31 08:36:20;;;;;;;3.17;1.40;;;17.30;99.90;;;;;;5031669;28;20505;-80
2023/07/31 08:38:46;;;;;;;4.13;1.52;;;17.30;99.90;;;;;;5027934;28;20034;-80
2023/07/31 08:41:13;;;;;;;3.20;1.50;;;17.30;99.90;;;;;;5013156;28;20231;-80
2023/07/31 08:43:39;;;;;;;4.80;1.63;;;17.30;99.90;;;;;;5012550;28;20065;-79
2023/07/31 08:46:05;;;;;;;4.05;1.45;;;17.50;99.90;;;;;;5031981;28;20083;-80
2023/07/31 08:48:32;;;;;;;3.05;1.50;;;17.40;99.90;;;;;;5031733;28;20055;-79
2023/07/31 08:50:57;;;;;;;3.60;1.40;;;17.40;99.90;;;;;;5032853;28;20057;-80
2023/07/31 08:53:23;;;;;;;3.03;1.30;;;17.50;99.90;;;;;;5019155;28;20038;-80
2023/07/31 08:55:49;;;;;;;3.92;1.42;;;17.50;99.90;;;;;;4995957;28;20038;-79
2023/07/31 08:58:17;;;;;;;2.80;1.33;;;17.60;99.90;;;;;;5037860;28;20401;-80
2023/07/31 09:00:46;;;;;;;3.30;1.60;;;17.60;99.90;;;;;;5022472;28;20057;-76
2023/07/31 09:03:16;;;;;;;3.88;1.40;;;17.60;99.90;;;;;;5032431;28;20128;-76
2023/07/31 09:05:44;;;;;;;1.83;1.10;;;17.60;99.90;;;;;;5014072;28;20037;-80
2023/07/31 09:08:12;;;;;;;4.82;2.00;;;17.80;99.90;;;;;;5030324;28;20486;-80
2023/07/31 09:10:42;;;;;;;2.85;1.40;;;17.80;99.90;;;;;;5033248;28;20045;-81
2023/07/31 09:13:09;;;;;;;4.65;1.40;;;17.80;99.90;;;;;;5014176;28;20038;-81
2023/07/31 09:15:35;;;;;;;3.40;1.30;;;17.80;99.90;;;;;;5026599;28;20064;-81
2023/07/31 09:18:02;;;;;;;2.22;1.10;;;17.90;99.90;;;;;;5031738;28;20095;-81
2023/07/31 09:20:28;;;;;;;1.90;1.00;;;17.90;99.90;;;;;;5014392;28;20053;-81
2023/07/31 09:22:55;;;;;;;3.58;1.20;;;17.90;99.90;;;;;;4996917;28;20042;-81
2023/07/31 09:25:22;;;;;;;2.90;1.10;;;17.90;99.90;;;;;;5022048;28;20041;-81
2023/07/31 09:27:54;;;;;;;2.38;1.05;;;18.00;99.90;;;;;;5027776;28;20419;-81
2023/07/31 09:30:21;;;;;;;1.98;0.80;;;18.00;99.90;;;;;;5029776;28;20045;-81
2023/07/31 09:32:48;;;;;;;2.35;1.00;;;18.00;99.90;;;;;;4995912;28;20038;-81
2023/07/31 09:35:21;;;;;;;1.10;0.70;;;18.10;99.90;;;;;;5025958;28;20505;-81
2023/07/31 09:37:52;;;;;;;2.08;0.77;;;18.10;99.90;;;;;;5025878;28;20065;-81
2023/07/31 09:40:38;;;;;;;3.92;0.90;;;18.10;99.90;;;;;;5003329;28;20030;-81
2023/07/31 09:43:05;;;;;;;0.70;0.50;;;18.10;99.90;;;;;;5010309;28;20034;-81
2023/07/31 09:45:37;;;;;;;2.83;0.90;;;18.10;99.90;;;;;;5012962;28;20044;-81
2023/07/31 09:48:06;;;;;;;2.20;0.85;;;18.10;99.90;;;;;;5029919;28;20044;-81
2023/07/31 09:50:32;;;;;;;0.70;0.52;;;18.10;99.90;;;;;;5013274;28;20117;-81
2023/07/31 09:52:57;;;;;;;0.90;0.60;;;18.20;99.90;;;;;;5025084;28;20570;-81
2023/07/31 09:55:24;;;;;;;0.55;0.50;;;18.20;99.90;;;;;;5011007;28;20040;-81
2023/07/31 09:57:50;;;;;;;2.10;0.55;;;18.20;99.90;;;;;;5024880;28;20529;-81
2023/07/31 10:00:17;;;;;;;1.08;0.68;;;18.20;99.90;;;;;;5010591;28;20038;-81
2023/07/31 10:02:46;;;;;;;0.98;0.55;;;18.20;99.90;;;;;;5024229;28;20045;-81
2023/07/31 10:05:18;;;;;;;1.08;0.55;;;18.20;99.90;;;;;;5030926;28;20522;-81
2023/07/31 10:08:13;;;;;;;1.05;0.50;;;18.20;99.90;;;;;;5018583;28;20045;-81
2023/07/31 10:10:45;;;;;;;1.33;0.60;;;18.20;99.90;;;;;;5021896;28;20045;-81
2023/07/31 10:13:11;;;;;;;;;;;18.20;99.90;;;;;;5024596;28;20038;-81
2023/07/31 10:15:37;;;;;;;1.63;0.60;;;18.20;99.90;;;;;;5007764;28;19940;-81
2023/07/31 10:18:06;;;;;;;2.90;0.90;;;18.20;99.90;;;;;;5017582;28;20098;-81
2023/07/31 10:20:32;;;;;;;1.38;0.80;;;18.20;99.90;;;;;;4995332;28;20514;-81
2023/07/31 10:22:58;;;;;;;1.13;0.70;;;18.20;99.90;;;;;;5012061;28;20073;-81
2023/07/31 10:25:25;;;;;;;1.15;0.63;;;18.30;99.90;;;;;;5005125;28;20041;-81
2023/07/31 10:27:53;;;;;;;2.50;0.80;;;18.30;99.90;;;;;;5023578;28;20137;-81
2023/07/31 10:30:23;;;;;;;3.28;0.77;;;18.30;99.90;;;;;;5034867;28;20060;-80
2023/07/31 10:32:49;;;;;;;1.27;0.80;;;18.40;99.90;;;;;;5015358;28;20033;-80
2023/07/31 10:35:17;;;;;;;0.88;0.60;;;18.40;99.90;;;;;;5024655;28;20029;-80
2023/07/31 10:37:43;;;;;;;0.90;0.63;;;18.40;99.90;;;;;;5028377;28;20482;-80
2023/07/31 10:40:16;;;;;;;1.08;0.60;;;18.40;99.90;;;;;;5029876;28;20048;-80
2023/07/31 10:42:50;;;;;;;0.82;0.52;;;18.50;99.90;;;;;;5034980;28;20040;-80
2023/07/31 10:45:31;;;;;;;0.70;0.70;;;18.60;99.90;;;;;;5020490;28;20037;-80
2023/07/31 10:48:01;;;;;;;1.00;0.70;;;18.70;99.90;;;;;;5014557;28;20041;-80
2023/07/31 10:50:27;;;;;;;0.90;0.50;;;18.70;99.90;;;;;;5031158;28;20418;-80
2023/07/31 10:52:54;;;;;;;1.63;0.50;;;18.80;99.90;;;;;;5027674;28;20056;-80
2023/07/31 10:55:27;;;;;;;0.55;0.55;;;19.00;99.90;;;;;;5013074;28;20048;-79
2023/07/31 10:57:54;;;;;;;0.50;0.47;;;19.00;99.90;;;;;;5006829;28;20046;-80
2023/07/31 11:00:29;;;;;;;2.08;0.60;;;19.00;99.90;;;;;;5018202;28;20389;-81
2023/07/31 11:03:12;;;;;;;1.23;0.60;;;19.10;99.90;;;;;;5006312;28;20033;-79
2023/07/31 11:05:47;;;;;;;0.40;0.40;;;19.00;99.90;;;;;;5030316;28;20601;-80
2023/07/31 11:08:13;;;;;;;1.02;0.60;;;19.20;99.90;;;;;;5030494;28;20045;-79
2023/07/31 11:10:39;;;;;;;0.98;0.60;;;19.10;99.90;;;;;;5018317;28;20127;-80
2023/07/31 11:13:05;;;;;;;0.75;0.60;;;19.10;99.90;;;;;;5027997;28;20501;-80
2023/07/31 11:15:31;;;;;;;1.90;0.73;;;19.10;99.90;;;;;;5002697;28;20852;-80
2023/07/31 11:17:58;;;;;;;3.13;1.10;;;19.20;99.90;;;;;;5029214;28;20072;-81
2023/07/31 11:20:24;;;;;;;2.65;0.90;;;19.30;99.90;;;;;;5029668;28;20033;-80
2023/07/31 11:22:50;;;;;;;2.97;1.00;;;19.30;99.90;;;;;;5033717;28;20039;-80
2023/07/31 11:25:16;;;;;;;1.92;1.23;;;19.40;99.90;;;;;;5014403;28;20156;-80
2023/07/31 11:27:43;;;;;;;4.13;1.02;;;19.40;99.90;;;;;;5025342;28;20057;-80
2023/07/31 11:30:09;;;;;;;3.28;0.93;;;19.40;99.90;;;;;;5021626;28;20112;-80
2023/07/31 11:32:38;;;;;;;1.70;0.70;;;19.50;99.90;;;;;;5002687;28;20104;-80
2023/07/31 11:35:05;;;;;;;1.23;0.60;;;19.40;99.90;;;;;;5028260;28;20079;-80
2023/07/31 11:37:41;;;;;;;0.90;0.70;;;19.20;99.90;;;;;;5028854;28;20394;-80
2023/07/31 11:40:07;;;;;;;0.60;0.60;;;19.20;99.90;;;;;;5032527;28;20025;-79
2023/07/31 11:42:37;;;;;;;1.35;0.60;;;19.10;99.90;;;;;;5016701;28;20084;-77
2023/07/31 11:45:04;;;;;;;1.17;0.50;;;19.00;99.90;;;;;;5032815;28;20034;-78
2023/07/31 11:47:34;;;;;;;2.35;0.60;;;18.80;99.90;;;;;;5050011;28;20429;-78
2023/07/31 11:50:00;;;;;;;2.47;0.50;;;18.70;99.90;;;;;;5017507;28;20034;-78
2023/07/31 11:52:25;;;;;;;1.45;0.40;;;18.70;99.90;;;;;;5012577;28;20092;-78
2023/07/31 11:54:51;;;;;;;1.65;0.50;;;18.70;99.90;;;;;;5002682;28;20065;-78
2023/07/31 11:57:19;;;;;;;1.27;0.50;;;18.70;99.90;;;;;;5015361;28;20046;-78
2023/07/31 11:59:45;;;;;;;0.95;0.40;;;18.70;99.90;;;;;;5033650;28;20041;-78
2023/07/31 12:02:11;;;;;;;0.50;0.38;;;18.80;99.90;;;;;;5014047;28;20026;-79
2023/07/31 12:04:38;;;;;;;1.10;0.47;;;18.90;99.90;;;;;;5028448;28;20485;-79
2023/07/31 12:07:04;;;;;;;0.60;0.60;;;18.90;99.90;;;;;;5024191;28;20094;-80
2023/07/31 12:09:29;;;;;;;1.17;0.82;;;19.00;99.90;;;;;;5017956;28;20041;-79
2023/07/31 12:11:55;;;;;;;1.65;0.52;;;19.00;99.90;;;;;;5017449;28;20629;-79
2023/07/31 12:14:21;;;;;;;4.05;0.90;;;19.10;99.90;;;;;;5013730;28;20045;-80
2023/07/31 12:16:47;;;;;;;2.05;0.90;;;19.10;99.90;;;;;;4997298;28;20049;-80
2023/07/31 12:19:12;;;;;;;1.27;0.90;;;19.20;99.90;;;;;;4998013;28;20386;-80
2023/07/31 12:21:38;;;;;;;1.40;0.70;;;19.20;99.90;;;;;;4997353;28;20470;-80
2023/07/31 12:24:04;;;;;;;2.85;1.10;;;19.20;99.90;;;;;;5008651;28;20049;-80
2023/07/31 12:26:36;;;;;;;2.33;0.98;;;19.20;99.90;;;;;;5001229;28;20054;-79
2023/07/31 12:29:01;;;;;;;2.83;0.85;;;19.10;99.90;;;;;;5028999;28;20490;-79
2023/07/31 12:31:28;;;;;;;1.02;0.70;;;19.00;99.90;;;;;;5014488;28;20033;-79
2023/07/31 12:33:55;;;;;;;2.15;0.77;;;19.10;99.90;;;;;;5024104;28;20044;-80
2023/07/31 12:36:23;;;;;;;1.50;0.80;;;19.10;99.90;;;;;;5034539;28;20037;-80
2023/07/31 12:38:50;;;;;;;2.90;0.85;;;19.00;99.90;;;;;;5006353;28;21343;-79
2023/07/31 12:41:16;;;;;;;2.10;0.90;;;18.90;99.90;;;;;;5030461;28;20040;-80
2023/07/31 12:43:43;;;;;;;2.35;1.25;;;18.90;99.90;;;;;;5010963;28;20038;-79